createdAt,value
2022-11-13T00:02:50.083Z,20.00
2022-11-13T00:08:10.371Z,17.23
2022-11-13T00:13:30.909Z,17.90
2022-11-13T00:18:51.439Z,17.95
2022-11-13T00:24:11.370Z,17.90
2022-11-13T00:29:31.683Z,17.50
2022-11-13T00:34:52.715Z,17.50
2022-11-13T00:40:12.828Z,17.23
2022-11-13T00:45:33.169Z,18.00
2022-11-13T00:50:54.098Z,18.25
2022-11-13T00:56:14.423Z,17.00
2022-11-13T01:01:34.792Z,18.75
2022-11-13T01:06:55.686Z,19.10
2022-11-13T01:12:16.231Z,17.67
2022-11-13T01:17:36.965Z,16.23
2022-11-13T01:22:56.893Z,18.75
2022-11-13T01:28:17.263Z,23.02
2022-11-13T01:33:37.913Z,35.85
2022-11-13T01:38:58.591Z,24.55
2022-11-13T01:44:20.031Z,60.47
2022-11-13T01:49:42.495Z,31.23
2022-11-13T01:55:11.760Z,27.98
2022-11-13T02:00:32.058Z,45.17
2022-11-13T02:05:53.965Z,18.15
2022-11-13T02:11:14.602Z,17.95
2022-11-13T02:16:37.297Z,30.77
2022-11-13T02:22:26.343Z,26.75
2022-11-13T02:27:48.984Z,95.78
2022-11-13T02:33:30.764Z,46.85
2022-11-13T02:38:53.661Z,20.50
2022-11-13T02:44:13.637Z,33.67
2022-11-13T02:49:34.013Z,30.05
2022-11-13T02:54:54.219Z,48.67
2022-11-13T03:00:15.163Z,24.13
2022-11-13T03:05:35.333Z,33.78
2022-11-13T03:10:55.793Z,27.83
2022-11-13T03:16:17.071Z,22.27
2022-11-13T03:21:37.413Z,20.10
2022-11-13T03:26:57.697Z,21.20
2022-11-13T03:32:18.631Z,21.35
2022-11-13T03:37:39.098Z,19.30
2022-11-13T03:42:59.090Z,19.60
2022-11-13T03:48:19.313Z,18.55
2022-11-13T03:53:39.786Z,18.10
2022-11-13T03:59:00.047Z,16.98
2022-11-13T04:04:20.488Z,17.05
2022-11-13T04:09:40.629Z,16.92
2022-11-13T04:15:00.868Z,17.08
2022-11-13T04:20:21.149Z,14.88
2022-11-13T04:25:41.499Z,15.68
2022-11-13T04:31:01.700Z,14.93
2022-11-13T04:36:22.026Z,14.32
2022-11-13T04:42:00.861Z,14.10
2022-11-13T04:47:21.139Z,14.25
2022-11-13T04:52:41.925Z,13.20
2022-11-13T04:58:02.052Z,12.57
2022-11-13T05:03:22.270Z,12.48
2022-11-13T05:08:42.508Z,12.88
2022-11-13T05:14:04.929Z,10.68
2022-11-13T05:19:25.142Z,11.23
2022-11-13T05:24:45.381Z,11.50
2022-11-13T05:30:06.135Z,11.50
2022-11-13T05:35:26.504Z,10.40
2022-11-13T05:40:46.704Z,11.40
2022-11-13T05:46:13.189Z,9.80
2022-11-13T05:51:34.495Z,13.17
2022-11-13T05:56:54.623Z,10.32
2022-11-13T06:02:15.031Z,9.88
2022-11-13T06:07:35.371Z,9.05
2022-11-13T06:12:55.489Z,9.68
2022-11-13T06:18:15.730Z,10.02
2022-11-13T06:23:37.804Z,9.60
2022-11-13T06:28:59.066Z,11.07
2022-11-13T06:34:19.197Z,10.38
2022-11-13T06:39:39.193Z,9.82
2022-11-13T06:44:59.517Z,10.52
2022-11-13T06:50:19.762Z,10.23
2022-11-13T06:55:49.847Z,9.88
2022-11-13T07:01:21.919Z,9.52
2022-11-13T07:06:42.414Z,10.38
2022-11-13T07:12:02.983Z,10.40
2022-11-13T07:17:23.116Z,10.82
2022-11-13T07:22:43.326Z,10.30
2022-11-13T07:28:03.742Z,13.25
2022-11-13T07:33:23.959Z,11.27
2022-11-13T07:38:44.528Z,12.95
2022-11-13T07:44:08.933Z,13.52
2022-11-13T07:49:29.677Z,11.00
2022-11-13T07:54:49.743Z,12.20
2022-11-13T08:00:10.453Z,11.85
2022-11-13T08:05:30.713Z,11.32
2022-11-13T08:10:50.705Z,10.70
2022-11-13T08:16:11.389Z,10.88
2022-11-13T08:21:31.642Z,11.65
2022-11-13T08:26:51.826Z,10.75
2022-11-13T08:32:15.754Z,10.10
2022-11-13T08:37:36.180Z,10.52
2022-11-13T08:43:00.413Z,9.70
2022-11-13T08:48:20.566Z,13.50
2022-11-13T08:53:40.810Z,12.02
2022-11-13T08:59:01.178Z,11.02
2022-11-13T09:04:22.336Z,10.23
2022-11-13T09:09:42.587Z,10.15
2022-11-13T09:15:03.000Z,10.63
2022-11-13T09:20:25.019Z,10.13
2022-11-13T09:25:45.026Z,9.82
2022-11-13T09:31:06.756Z,10.45
2022-11-13T09:36:26.728Z,10.18
2022-11-13T09:41:59.468Z,9.02
2022-11-13T09:47:30.552Z,10.07
2022-11-13T09:52:52.065Z,11.23
2022-11-13T09:58:32.009Z,9.60
2022-11-13T10:04:03.862Z,9.98
2022-11-13T10:09:31.770Z,13.40
2022-11-13T10:14:57.351Z,9.43
2022-11-13T10:21:09.315Z,10.07
2022-11-13T10:26:29.982Z,9.82
2022-11-13T10:31:52.470Z,10.70
2022-11-13T10:37:45.161Z,11.50
2022-11-13T10:43:13.246Z,10.30
2022-11-13T10:48:35.848Z,9.77
2022-11-13T10:53:58.796Z,8.60
2022-11-13T10:59:20.178Z,8.20
2022-11-13T11:04:40.089Z,9.20
2022-11-13T11:10:00.326Z,8.93
2022-11-13T11:15:42.026Z,7.57
2022-11-13T11:21:07.995Z,8.27
2022-11-13T11:26:39.548Z,8.33
2022-11-13T11:32:27.032Z,8.65
2022-11-13T11:37:57.748Z,9.40
2022-11-13T11:43:29.197Z,10.25
2022-11-13T11:48:50.203Z,10.05
2022-11-13T11:54:39.488Z,9.55
2022-11-13T11:59:59.826Z,9.68
2022-11-13T12:05:29.678Z,11.57
2022-11-13T12:11:15.015Z,10.93
2022-11-13T12:16:42.617Z,11.73
2022-11-13T12:27:47.913Z,12.40
2022-11-13T12:33:37.360Z,13.55
2022-11-13T12:39:03.547Z,14.50
2022-11-13T12:44:24.651Z,13.90
2022-11-13T12:49:45.047Z,14.60
2022-11-13T12:55:09.028Z,14.95
2022-11-13T13:00:31.210Z,14.73
2022-11-13T13:06:20.609Z,15.55
2022-11-13T13:11:53.820Z,13.75
2022-11-13T13:17:13.657Z,13.68
2022-11-13T13:22:35.629Z,14.43
2022-11-13T13:28:21.184Z,15.20
2022-11-13T13:34:03.640Z,14.35
2022-11-13T13:39:26.572Z,14.73
2022-11-13T13:45:22.310Z,14.82
2022-11-13T13:50:48.392Z,14.95
2022-11-13T13:56:12.096Z,14.05
2022-11-13T14:01:34.029Z,14.32
2022-11-13T14:06:59.174Z,17.67
2022-11-13T14:12:21.930Z,17.63
2022-11-13T14:17:41.885Z,17.45
2022-11-13T14:23:02.530Z,17.33
2022-11-13T14:28:26.986Z,19.02
2022-11-13T14:33:49.921Z,20.55
2022-11-13T14:39:28.010Z,21.55
2022-11-13T14:44:48.328Z,23.75
2022-11-13T14:50:11.400Z,22.52
2022-11-13T14:55:34.226Z,22.33
2022-11-13T15:00:54.284Z,24.05
2022-11-13T15:06:15.381Z,23.60
2022-11-13T15:11:36.851Z,24.70
2022-11-13T15:16:58.938Z,25.83
2022-11-13T15:22:28.109Z,25.13
2022-11-13T15:27:49.340Z,33.10
2022-11-13T15:33:14.973Z,27.08
2022-11-13T15:38:35.243Z,23.00
2022-11-13T15:43:56.318Z,31.42
2022-11-13T15:49:16.366Z,30.20
2022-11-13T15:54:38.706Z,29.55
2022-11-13T15:59:58.970Z,34.83
2022-11-13T16:05:19.694Z,34.28
2022-11-13T16:10:39.664Z,32.50
2022-11-13T16:16:00.869Z,39.60
2022-11-13T16:21:22.044Z,48.10
2022-11-13T16:26:50.595Z,39.58
2022-11-13T16:32:16.448Z,35.45
2022-11-13T16:37:36.526Z,41.53
2022-11-13T16:42:57.643Z,44.80
2022-11-13T16:48:18.431Z,42.78
2022-11-13T16:53:38.676Z,41.60
2022-11-13T16:58:59.097Z,43.28
2022-11-13T17:04:19.039Z,42.70
2022-11-13T17:09:41.445Z,45.78
2022-11-13T17:15:01.680Z,48.03
2022-11-13T17:20:21.853Z,44.10
2022-11-13T17:25:42.036Z,53.65
2022-11-13T17:31:07.266Z,48.63
2022-11-13T17:36:27.485Z,61.55
2022-11-13T17:41:47.740Z,63.35
2022-11-13T17:47:08.396Z,52.33
2022-11-13T17:52:28.311Z,70.80
2022-11-13T17:57:48.545Z,65.93
2022-11-13T18:03:08.779Z,72.32
2022-11-13T18:08:30.136Z,55.38
2022-11-13T18:13:51.326Z,61.22
2022-11-13T18:19:11.455Z,53.97
2022-11-13T18:24:31.632Z,62.83
2022-11-13T18:29:52.383Z,78.20
2022-11-13T18:35:12.654Z,73.20
2022-11-13T18:40:33.053Z,75.88
2022-11-13T18:46:04.619Z,70.65
2022-11-13T18:51:28.458Z,76.97
2022-11-13T18:56:48.546Z,82.75
2022-11-13T19:02:11.244Z,81.28
2022-11-13T19:07:31.899Z,82.85
2022-11-13T19:12:51.972Z,75.25
2022-11-13T19:18:12.232Z,79.15
2022-11-13T19:23:32.724Z,76.65
2022-11-13T19:28:53.975Z,78.13
2022-11-13T19:34:14.674Z,76.18
2022-11-13T19:39:35.112Z,76.88
2022-11-13T19:44:55.244Z,126.38
2022-11-13T19:50:16.031Z,75.28
2022-11-13T19:55:36.451Z,75.30
2022-11-13T20:00:57.253Z,75.88
2022-11-13T20:06:18.083Z,73.50
2022-11-13T20:11:38.603Z,70.20
2022-11-13T20:16:59.303Z,73.90
2022-11-13T20:22:19.628Z,64.97
2022-11-13T20:27:45.951Z,74.18
2022-11-13T20:33:07.451Z,67.60
2022-11-13T20:38:28.953Z,79.63
2022-11-13T20:43:50.135Z,97.25
2022-11-13T20:49:10.457Z,109.68
2022-11-13T20:54:30.680Z,94.00
2022-11-13T20:59:51.099Z,81.68
2022-11-13T21:05:11.329Z,69.57
2022-11-13T21:10:33.028Z,57.33
2022-11-13T21:15:53.538Z,59.92
2022-11-13T21:21:18.708Z,55.78
2022-11-13T21:26:38.845Z,51.58
2022-11-13T21:31:59.137Z,47.05
2022-11-13T21:37:19.466Z,50.90
2022-11-13T21:42:39.968Z,46.10
2022-11-13T21:48:00.343Z,39.10
2022-11-13T21:53:20.443Z,32.95
2022-11-13T21:58:41.437Z,32.10
2022-11-13T22:04:01.928Z,31.58
2022-11-13T22:09:25.284Z,29.10
2022-11-13T22:14:45.611Z,30.55
2022-11-13T22:20:06.473Z,28.40
2022-11-13T22:25:26.937Z,27.95
2022-11-13T22:30:47.250Z,28.73
2022-11-13T22:36:13.733Z,28.25
2022-11-13T22:41:35.657Z,29.98
2022-11-13T22:46:55.729Z,28.65
2022-11-13T22:52:16.039Z,28.27
2022-11-13T22:57:36.501Z,31.45
2022-11-13T23:03:00.459Z,29.65
2022-11-13T23:08:21.270Z,29.85
2022-11-13T23:13:45.936Z,28.23
2022-11-13T23:19:06.281Z,33.28
2022-11-13T23:24:26.411Z,31.33
2022-11-13T23:29:50.048Z,29.85
2022-11-13T23:35:10.577Z,29.05
2022-11-13T23:40:30.948Z,28.50
2022-11-13T23:45:51.946Z,28.60
2022-11-13T23:51:12.172Z,35.65
2022-11-13T23:56:32.467Z,28.67
